Latest Weather Observations for Parafield

IDS60901

Issued at 10:25 am CST Friday 18 April 2014 (issued every 10 minutes, with the page automatically refreshed every 10 minutes)

About weather observations | Map of Adelaide area stations | Latest observations for Adelaide area | Other Formats
Station Details ID: 023013 Name: PARAFIELD AIRPORT Lat: -34.80 Lon: 138.63 Height: 9.5 m
Data from the previous 72 hours. | See also: Recent months at Parafield
Date/Time
CST
Tmp

°C
App
Tmp
°C
Dew
Point
°C
Rel
Hum
%
Delta-T

°C
Wind Press
QNH
hPa
Press
MSL
hPa
Rain
since
9 am
mm
Dir
 
Spd
km/h
Gust
km/h
Spd
kts
Gust
kts
18/10:00am 18.5 15.7 13.1 71 3.0 SSW 20 28 11 15 1022.0 - 0.0
18/09:30am 18.4 15.9 14.1 76 2.5 SSW 20 28 11 15 1021.8 - 0.0
18/09:00am 16.6 16.9 15.1 91 0.9 S 7 11 4 6 1021.7 1021.7 1.4
18/08:30am 15.8 16.0 14.7 93 0.6 S 7 11 4 6 1021.5 - 1.4
18/08:04am 15.4 13.5 14.3 93 0.6 S 17 26 9 14 1020.9 - 1.4
18/08:00am 15.5 13.1 14.4 93 0.6 SSW 20 28 11 15 1020.9 - 1.4
18/07:45am 16.0 10.7 14.2 89 1.0 SSW 35 50 19 27 1020.7 - 1.0
18/07:43am 16.7 10.0 14.5 87 1.3 WSW 43 50 23 27 1020.4 - 0.8
18/07:30am 18.2 16.7 14.3 78 2.2 W 15 20 8 11 1020.2 - 0.0
18/07:00am 17.9 16.6 13.8 77 2.3 W 13 17 7 9 1020.0 - 0.0
18/06:30am 17.8 15.4 13.7 77 2.3 W 19 24 10 13 1020.0 - 0.0
18/06:00am 17.7 15.7 13.8 78 2.2 W 17 22 9 12 1019.9 1019.9 0.0
18/05:30am 17.0 15.3 13.7 81 1.9 W 15 20 8 11 1019.9 - 0.0
18/05:00am 15.9 14.7 12.8 82 1.7 WSW 11 15 6 8 1019.8 - 0.0
18/04:30am 16.0 14.6 13.3 84 1.5 WSW 13 17 7 9 1019.6 - 0.0
18/04:00am 17.1 14.3 13.2 78 2.2 WSW 20 28 11 15 1019.3 - 0.0
18/03:30am 17.0 14.5 13.5 80 2.0 WSW 19 28 10 15 1019.4 - 0.0
18/03:00am 17.1 14.6 13.4 79 2.1 WSW 19 24 10 13 1019.4 1019.4 0.0
18/02:30am 17.1 14.5 13.2 78 2.2 WSW 19 26 10 14 1019.3 - 0.0
18/02:00am 17.7 15.0 14.6 82 1.8 W 22 32 12 17 1019.3 - 0.0
18/01:30am 15.1 14.9 13.0 87 1.2 N 6 7 3 4 1019.4 - 0.0
18/01:00am 13.4 12.0 10.8 84 1.4 NE 9 9 5 5 1019.3 - 0.0
18/12:30am 14.0 12.7 11.3 84 1.4 NNE 9 11 5 6 1019.1 - 0.0
18/12:00am 14.5 13.6 11.5 82 1.6 N 7 9 4 5 1019.5 1019.5 0.0
 
Date/Time
CST
Tmp

°C
App
Tmp
°C
Dew
Point
°C
Rel
Hum
%
Delta-T

°C
Wind Press
QNH
hPa
Press
MSL
hPa
Rain
since
9 am
mm
Dir
 
Spd
km/h
Gust
km/h
Spd
kts
Gust
kts
17/11:30pm 14.6 13.8 11.7 83 1.6 NNE 7 9 4 5 1019.6 - 0.0
17/11:00pm 15.1 14.9 11.7 80 1.8 NNE 4 7 2 4 1020.0 - 0.0
17/10:30pm 15.3 15.8 11.7 79 1.9 CALM 0 0 0 0 1020.1 - 0.0
17/10:00pm 15.5 16.0 11.5 77 2.2 CALM 0 6 0 3 1020.2 - 0.0
17/09:30pm 16.9 16.8 12.0 73 2.7 NNE 4 7 2 4 1020.0 - 0.0
17/09:00pm 16.9 17.6 12.2 74 2.6 CALM 0 0 0 0 1020.0 1020.0 0.0
17/08:30pm 16.7 16.6 12.0 74 2.6 NNE 4 7 2 4 1019.7 - 0.0
17/08:00pm 16.8 16.1 12.1 74 2.6 NE 7 9 4 5 1019.4 - 0.0
17/07:30pm 18.0 17.3 12.0 68 3.3 NE 7 9 4 5 1019.3 - 0.0
17/07:00pm 18.7 19.5 12.7 68 3.4 CALM 0 0 0 0 1019.3 - 0.0
17/06:30pm 18.5 19.0 11.6 64 3.8 CALM 0 0 0 0 1019.1 - 0.0
17/06:00pm 19.8 19.1 12.1 61 4.3 WNW 7 7 4 4 1019.2 1019.2 0.0
17/05:30pm 20.6 19.5 12.1 58 4.8 W 9 11 5 6 1018.9 - 0.0
17/05:00pm 21.8 20.3 11.8 53 5.6 W 11 17 6 9 1019.1 - 0.0
17/04:30pm 22.7 20.7 11.4 49 6.3 WNW 13 17 7 9 1019.0 - 0.0
17/04:00pm 23.3 21.7 11.4 47 6.7 WSW 11 15 6 8 1018.9 - 0.0
17/03:30pm 23.6 21.7 10.6 44 7.2 W 11 17 6 9 1019.2 - 0.0
17/03:00pm 23.7 21.5 10.7 44 7.2 WNW 13 19 7 10 1019.4 1019.4 0.0
17/02:30pm 23.1 21.2 10.5 45 6.9 NW 11 17 6 9 1019.6 - 0.0
17/02:00pm 23.0 20.7 10.4 45 6.9 NW 13 19 7 10 1019.9 - 0.0
17/01:30pm 23.2 20.1 11.6 48 6.5 NW 19 24 10 13 1020.0 - 0.0
17/01:00pm 22.4 20.7 12.6 54 5.6 WSW 13 20 7 11 1020.5 - 0.0
17/12:30pm 22.0 20.8 12.8 56 5.2 W 11 17 6 9 1021.0 - 0.0
17/12:00pm 22.2 20.7 11.9 52 5.8 WSW 11 17 6 9 1021.4 1021.4 0.0
17/11:30am 21.6 21.1 12.7 57 5.1 W 7 15 4 8 1021.6 - 0.0
17/11:00am 21.2 20.3 12.6 58 4.9 W 9 15 5 8 1021.9 - 0.0
17/10:30am 20.5 20.1 13.0 62 4.3 W 7 11 4 6 1021.8 - 0.0
17/10:00am 20.0 19.3 13.2 65 3.9 NNE 9 13 5 7 1021.7 - 0.0
17/09:30am 19.2 18.0 12.9 67 3.6 N 11 15 6 8 1021.8 - 0.0
17/09:00am 18.4 16.7 12.4 68 3.3 N 13 17 7 9 1021.7 1021.7 0.0
17/08:30am 16.8 14.8 11.5 71 2.9 NNE 13 15 7 8 1021.7 - 0.0
17/08:00am 14.9 14.0 11.5 80 1.8 NNE 7 9 4 5 1021.6 - 0.0
17/07:34am 11.0 10.2 9.6 91 0.7 NE 4 7 2 4 1021.5 - 0.0
17/07:30am 11.1 9.7 9.5 90 0.8 NE 7 9 4 5 1021.4 - 0.0
17/07:00am 9.6 8.1 8.4 92 0.6 ENE 6 6 3 3 1021.2 - 0.0
17/06:51am 8.7 6.9 7.3 91 0.7 ENE 6 6 3 3 1021.2 - 0.0
17/06:31am 9.1 7.4 7.7 91 0.7 NE 6 9 3 5 1020.9 - 0.0
17/06:30am 9.2 7.9 7.8 91 0.7 NE 4 9 2 5 1020.9 - 0.0
17/06:01am 8.6 8.0 7.2 91 0.7 CALM 0 0 0 0 1020.9 - 0.0
17/06:00am 8.5 7.8 7.1 91 0.7 CALM 0 0 0 0 1020.9 1020.9 0.0
17/05:30am 9.0 8.4 7.3 89 0.8 CALM 0 6 0 3 1020.6 - 0.0
17/05:00am 9.5 7.7 7.3 86 1.0 ENE 6 7 3 4 1020.5 - 0.0
17/04:30am 9.8 8.1 7.6 86 1.1 NE 6 7 3 4 1020.4 - 0.0
17/04:00am 10.3 9.9 8.1 86 1.1 CALM 0 6 0 3 1020.2 - 0.0
17/03:30am 9.6 8.3 7.5 87 1.0 NE 4 6 2 3 1020.1 - 0.0
17/03:00am 9.7 9.2 7.8 88 0.9 CALM 0 0 0 0 1020.1 1020.1 0.0
17/02:30am 10.0 8.1 7.6 85 1.1 N 7 9 4 5 1020.3 - 0.0
17/02:00am 10.8 10.4 8.2 84 1.3 CALM 0 0 0 0 1020.5 - 0.0
17/01:30am 11.0 10.6 8.4 84 1.3 CALM 0 0 0 0 1020.6 - 0.0
17/01:00am 10.5 8.6 7.7 83 1.3 ENE 7 7 4 4 1020.6 - 0.0
17/12:30am 11.0 9.2 7.9 81 1.5 ENE 7 9 4 5 1020.5 - 0.0
17/12:00am 11.5 10.0 8.5 82 1.5 N 6 9 3 5 1020.5 1020.5 0.0
 
Date/Time
CST
Tmp

°C
App
Tmp
°C
Dew
Point
°C
Rel
Hum
%
Delta-T

°C
Wind Press
QNH
hPa
Press
MSL
hPa
Rain
since
9 am
mm
Dir
 
Spd
km/h
Gust
km/h
Spd
kts
Gust
kts
16/11:30pm 12.2 12.0 8.9 80 1.6 CALM 0 0 0 0 1020.5 - 0.0
16/11:00pm 12.3 12.2 9.3 82 1.5 CALM 0 0 0 0 1020.7 - 0.0
16/10:30pm 12.5 12.4 9.3 81 1.6 CALM 0 0 0 0 1020.8 - 0.0
16/10:00pm 11.8 10.3 8.5 80 1.6 N 6 9 3 5 1020.5 - 0.0
16/09:30pm 13.0 12.7 8.5 74 2.2 CALM 0 0 0 0 1020.4 - 0.0
16/09:00pm 14.7 14.6 9.5 71 2.7 CALM 0 0 0 0 1020.3 1020.3 0.0
16/08:30pm 14.3 14.2 9.3 72 2.6 CALM 0 0 0 0 1020.3 - 0.0
16/08:00pm 14.4 14.1 8.6 68 2.9 CALM 0 0 0 0 1020.0 - 0.0
16/07:30pm 15.5 14.2 9.2 66 3.2 NE 6 7 3 4 1019.6 - 0.0
16/07:00pm 17.9 17.7 9.0 56 4.6 CALM 0 0 0 0 1019.6 - 0.0
16/06:30pm 17.3 15.7 8.2 55 4.6 SW 6 7 3 4 1019.4 - 0.0
16/06:00pm 18.5 16.5 8.5 52 5.2 SW 9 9 5 5 1019.2 1019.2 0.0
16/05:30pm 20.5 18.1 8.5 46 6.3 WSW 11 15 6 8 1019.1 - 0.0
16/05:00pm 21.0 18.1 8.3 44 6.6 WSW 13 19 7 10 1019.0 - 0.0
16/04:30pm 21.4 18.5 8.0 42 7.0 W 13 19 7 10 1018.9 - 0.0
16/04:00pm 23.1 20.5 7.6 37 8.1 W 11 19 6 10 1018.7 - 0.0
16/03:30pm 22.4 19.7 7.4 38 7.8 WNW 11 17 6 9 1018.7 - 0.0
16/03:00pm 23.0 19.1 7.1 36 8.2 W 17 22 9 12 1019.1 1019.1 0.0
16/02:30pm 23.4 20.4 7.9 37 8.2 WSW 13 22 7 12 1019.1 - 0.0
16/02:00pm 22.7 18.7 6.5 35 8.3 W 17 24 9 13 1019.0 - 0.0
16/01:30pm 23.0 19.2 7.5 37 8.1 W 17 24 9 13 1019.1 - 0.0
16/01:00pm 23.0 19.7 7.9 38 7.9 NW 15 24 8 13 1019.2 - 0.0
16/12:30pm 22.1 18.8 8.2 41 7.3 WSW 15 22 8 12 1019.6 - 0.0
16/12:00pm 21.9 19.5 8.8 43 6.9 W 11 17 6 9 1020.0 1020.0 0.0
16/11:30am 21.4 18.6 8.7 44 6.7 NW 13 19 7 10 1020.4 - 0.0
16/11:00am 21.2 18.5 9.1 46 6.4 NW 13 19 7 10 1021.0 - 0.0
16/10:30am 20.8 18.7 9.7 49 6.0 NW 11 17 6 9 1021.1 - 0.0
16/10:00am 20.0 18.2 9.6 51 5.5 NNW 9 13 5 7 1020.9 - 0.0
16/09:30am 18.6 15.8 9.9 57 4.6 N 15 17 8 9 1020.6 - 0.0
16/09:00am 17.1 17.3 10.7 66 3.4 CALM 0 7 0 4 1020.9 1020.9 0.0
16/08:30am 14.0 13.9 9.4 74 2.4 CALM 0 0 0 0 1021.2 - 0.0
16/08:00am 12.2 12.2 9.9 86 1.2 CALM 0 0 0 0 1021.0 - 0.0
16/07:30am 10.9 10.9 9.7 92 0.6 CALM 0 0 0 0 1020.6 - 0.0
16/07:00am 9.3 8.9 8.2 93 0.5 CALM 0 0 0 0 1020.6 - 0.0
16/06:30am 8.8 8.3 7.7 93 0.5 CALM 0 0 0 0 1020.9 - 0.0
16/06:00am 8.8 7.9 7.7 93 0.5 W 2 6 1 3 1020.7 1020.7 0.0
16/05:30am 9.0 8.5 7.9 93 0.5 CALM 0 0 0 0 1020.4 - 0.0
16/05:00am 8.8 8.2 7.3 90 0.7 CALM 0 6 0 3 1020.2 - 0.0
16/04:30am 9.4 9.0 8.2 92 0.6 CALM 0 0 0 0 1020.1 - 0.0
16/04:00am 10.2 7.8 8.5 89 0.8 N 11 11 6 6 1020.0 - 0.0
16/03:30am 10.5 8.9 8.9 90 0.8 NNW 7 7 4 4 1020.3 - 0.0
16/03:00am 10.0 7.8 7.9 87 1.0 NW 9 9 5 5 1020.6 1020.6 0.0
16/02:30am 10.9 9.3 8.8 87 1.0 WNW 7 11 4 6 1020.8 - 0.0
16/02:00am 11.2 10.6 8.8 85 1.2 E 2 7 1 4 1021.0 - 0.0
16/01:30am 11.9 10.3 8.2 78 1.8 E 6 11 3 6 1021.3 - 0.0
16/01:00am 13.4 11.9 9.1 75 2.2 E 7 9 4 5 1021.4 - 0.0
16/12:30am 13.5 12.1 9.4 76 2.1 ESE 7 11 4 6 1021.5 - 0.0
16/12:00am 13.7 12.3 9.4 75 2.2 ENE 7 15 4 8 1021.3 1021.3 0.0
 
Date/Time
CST
Tmp

°C
App
Tmp
°C
Dew
Point
°C
Rel
Hum
%
Delta-T

°C
Wind Press
QNH
hPa
Press
MSL
hPa
Rain
since
9 am
mm
Dir
 
Spd
km/h
Gust
km/h
Spd
kts
Gust
kts
15/11:30pm 13.7 11.9 9.4 75 2.2 E 9 15 5 8 1021.6 - 0.0
15/11:00pm 14.3 12.8 9.3 72 2.6 NNE 7 9 4 5 1021.7 - 0.0
15/10:30pm 14.3 12.8 9.1 71 2.6 E 7 11 4 6 1021.9 - 0.0
15/10:00pm 14.8 11.7 9.0 68 3.0 ESE 15 22 8 12 1022.2 - 0.0
15/09:30pm 14.7 13.1 8.6 67 3.1 E 7 15 4 8 1022.3 - 0.0
15/09:00pm 15.1 12.4 8.8 66 3.2 ESE 13 19 7 10 1022.1 1022.1 0.0
15/08:30pm 15.4 12.4 9.3 67 3.1 SE 15 20 8 11 1021.9 - 0.0
15/08:00pm 15.4 13.6 9.3 67 3.1 SE 9 15 5 8 1022.0 - 0.0
15/07:30pm 15.9 13.0 9.8 67 3.2 ESE 15 20 8 11 1021.8 - 0.0
15/07:00pm 15.6 15.2 11.2 75 2.4 E 4 7 2 4 1021.5 - 0.0
15/06:30pm 16.3 14.9 11.0 71 2.8 WSW 9 11 5 6 1021.6 - 0.0
15/06:00pm 18.0 15.5 10.9 63 3.8 WSW 15 20 8 11 1021.4 1021.4 0.0
15/05:30pm 19.2 17.0 10.7 58 4.6 SW 13 19 7 10 1021.1 - 0.0
15/05:00pm 20.2 16.7 10.9 55 5.1 SW 20 28 11 15 1021.2 - 0.0
15/04:30pm 22.0 20.3 8.2 41 7.2 ESE 7 13 4 7 1021.3 - 0.0
15/04:00pm 22.2 19.7 8.3 41 7.3 E 11 19 6 10 1020.7 - 0.0
15/03:30pm 22.4 20.3 8.1 40 7.5 ESE 9 17 5 9 1020.7 - 0.0
15/03:00pm 23.0 21.1 9.0 41 7.5 S 9 24 5 13 1020.9 1020.9 0.0
15/02:30pm 22.2 19.7 8.3 41 7.3 ESE 11 15 6 8 1021.1 - 0.0
15/02:00pm 21.9 19.2 8.8 43 7.0 SE 13 19 7 10 1021.1 - 0.0
15/01:30pm 22.1 19.2 8.2 41 7.3 ENE 13 22 7 12 1021.3 - 0.0
15/01:00pm 22.0 18.9 8.9 43 7.0 ESE 15 22 8 12 1021.5 - 0.0
15/12:30pm 21.6 18.9 8.8 44 6.8 ESE 13 22 7 12 1022.1 - 0.0
15/12:00pm 21.6 18.8 8.5 43 6.9 SE 13 20 7 11 1022.6 1022.6 0.0
15/11:30am 21.2 19.2 8.5 44 6.7 SE 9 17 5 9 1023.2 - 0.0
15/11:00am 21.3 17.3 8.9 45 6.6 SSE 20 28 11 15 1023.5 - 0.0
15/10:30am 20.9 18.2 8.9 46 6.3 ESE 13 22 7 12 1023.9 - 0.0

Latest Capital City Observations: Canberra | Sydney | Melbourne | Brisbane | Adelaide | Perth | Hobart | Darwin

Other Formats:

Comma delimited format used in spreadsheet applications
http://www.bom.gov.au/fwo/IDS60901/IDS60901.95677.axf

JavaScript Object Notation format (JSON) in row-major order
http://www.bom.gov.au/fwo/IDS60901/IDS60901.95677.json